Time;durP1;ratioP1;P1;durP2;ratioP2;P2;SDS_P1;SDS_P2;PMS_P1;PMS_P2;Temp;Humidity;BMP_temperature;BMP_pressure;BME280_temperature;BME280_humidity;BME280_pressure;Samples;Min_cycle;Max_cycle;Signal;HPM_P1;HPM_P2
2022/10/06 00:00:35;;;;;;;6.32;1.80;;;12.60;99.90;;;;;;5094904;28;20053;-60
2022/10/06 00:03:03;;;;;;;7.55;2.15;;;12.50;99.90;;;;;;5112322;28;20044;-61
2022/10/06 00:05:30;;;;;;;7.80;1.80;;;12.50;99.90;;;;;;5094634;28;20059;-60
2022/10/06 00:07:57;;;;;;;8.13;1.65;;;12.50;99.90;;;;;;5113102;28;20517;-61
2022/10/06 00:10:24;;;;;;;10.50;2.03;;;12.50;99.90;;;;;;5095190;28;20048;-61
2022/10/06 00:12:51;;;;;;;9.25;2.47;;;12.40;99.90;;;;;;5094364;28;20047;-61
2022/10/06 00:15:20;;;;;;;7.55;2.08;;;12.30;99.90;;;;;;5095642;28;20436;-60
2022/10/06 00:17:49;;;;;;;5.63;1.77;;;12.40;99.90;;;;;;5112739;28;20406;-60
2022/10/06 00:20:16;;;;;;;8.75;1.50;;;12.30;99.90;;;;;;5094448;28;20100;-59
2022/10/06 00:22:45;;;;;;;8.63;1.85;;;12.30;99.90;;;;;;5095046;28;20055;-61
2022/10/06 00:25:14;;;;;;;14.52;2.25;;;12.30;99.90;;;;;;5113072;28;20491;-60
2022/10/06 00:27:42;;;;;;;9.05;2.13;;;12.30;99.90;;;;;;5094526;28;20060;-61
2022/10/06 00:30:12;;;;;;;10.38;2.15;;;12.30;99.90;;;;;;5112455;28;20499;-60
2022/10/06 00:32:40;;;;;;;10.60;2.00;;;12.30;99.90;;;;;;5112122;28;20047;-60
2022/10/06 00:35:09;;;;;;;8.05;2.42;;;12.30;99.90;;;;;;5095434;28;20400;-60
2022/10/06 00:37:37;;;;;;;6.05;2.03;;;12.30;99.90;;;;;;5116170;28;20824;-61
2022/10/06 00:40:08;;;;;;;6.00;1.88;;;12.40;99.90;;;;;;5098270;28;20148;-61
2022/10/06 00:42:48;;;;;;;5.47;1.80;;;12.30;99.90;;;;;;5098919;28;20497;-60
2022/10/06 00:45:15;;;;;;;14.32;2.10;;;12.40;99.90;;;;;;5098917;28;20104;-60
2022/10/06 00:47:42;;;;;;;13.93;3.40;;;12.30;99.90;;;;;;5116215;28;20101;-61
2022/10/06 00:50:12;;;;;;;9.35;2.00;;;12.30;99.90;;;;;;5098676;28;20067;-59
2022/10/06 00:52:40;;;;;;;11.37;2.97;;;12.30;99.90;;;;;;5098432;28;20066;-59
2022/10/06 00:55:08;;;;;;;14.10;2.75;;;12.30;99.90;;;;;;5097981;28;20285;-60
2022/10/06 00:57:37;;;;;;;13.73;1.98;;;12.20;99.90;;;;;;5098596;28;20048;-60
2022/10/06 01:00:04;;;;;;;8.73;2.75;;;12.20;99.90;;;;;;5116316;28;20044;-60
2022/10/06 01:02:37;;;;;;;10.45;1.67;;;12.10;99.90;;;;;;5097456;28;20101;-60
2022/10/06 01:05:05;;;;;;;8.60;2.60;;;12.10;99.90;;;;;;5098281;28;20079;-61
2022/10/06 01:07:34;;;;;;;11.82;2.03;;;12.10;99.90;;;;;;5116280;28;20104;-60
2022/10/06 01:10:00;;;;;;;13.27;3.28;;;12.10;99.90;;;;;;5115554;28;20082;-60
2022/10/06 01:12:29;;;;;;;11.30;2.78;;;12.10;99.90;;;;;;5097826;28;20048;-61
2022/10/06 01:14:56;;;;;;;9.18;2.42;;;12.10;99.90;;;;;;5097351;28;20487;-59
2022/10/06 01:17:28;;;;;;;8.38;2.13;;;12.10;99.90;;;;;;5116380;28;20055;-61
2022/10/06 01:19:58;;;;;;;8.20;2.15;;;12.10;99.90;;;;;;5115972;28;20071;-61
2022/10/06 01:22:29;;;;;;;14.85;2.45;;;12.10;99.90;;;;;;5115056;28;20040;-60
2022/10/06 01:24:56;;;;;;;14.13;2.33;;;12.10;99.90;;;;;;5116081;28;20517;-61
2022/10/06 01:27:24;;;;;;;13.30;2.80;;;12.10;99.90;;;;;;5097894;28;20100;-61
2022/10/06 01:29:53;;;;;;;6.35;1.98;;;12.20;99.90;;;;;;5114876;28;20102;-61
2022/10/06 01:32:21;;;;;;;10.20;2.80;;;12.20;99.90;;;;;;5116045;28;20131;-60
2022/10/06 01:34:47;;;;;;;14.80;2.80;;;12.20;99.90;;;;;;5115594;28;20052;-60
2022/10/06 01:37:14;;;;;;;12.52;2.70;;;12.20;99.90;;;;;;5114656;28;20050;-60
2022/10/06 01:39:44;;;;;;;14.60;3.20;;;12.20;99.90;;;;;;5115615;28;20061;-60
2022/10/06 01:42:11;;;;;;;9.10;2.05;;;12.20;99.90;;;;;;5115710;28;20100;-60
2022/10/06 01:44:38;;;;;;;11.75;2.17;;;12.10;99.90;;;;;;5114939;28;20055;-60
2022/10/06 01:47:05;;;;;;;8.23;2.63;;;12.10;99.90;;;;;;5114755;28;20100;-60
2022/10/06 01:49:32;;;;;;;11.25;1.88;;;12.10;99.90;;;;;;5096848;28;20092;-59
2022/10/06 01:51:59;;;;;;;14.82;3.03;;;12.10;99.90;;;;;;5115177;28;20520;-60
2022/10/06 01:54:26;;;;;;;11.20;2.70;;;12.10;99.90;;;;;;5115609;28;20430;-60
2022/10/06 01:56:54;;;;;;;8.40;2.05;;;12.10;99.90;;;;;;5115572;28;20059;-60
2022/10/06 01:59:21;;;;;;;12.85;3.13;;;12.10;99.90;;;;;;5096984;28;20066;-61
2022/10/06 02:01:48;;;;;;;11.93;2.05;;;12.10;99.90;;;;;;5115125;28;20054;-60
2022/10/06 02:04:15;;;;;;;13.27;2.22;;;12.00;99.90;;;;;;5096388;28;20044;-60
2022/10/06 02:06:42;;;;;;;9.65;2.78;;;12.00;99.90;;;;;;5115563;28;20047;-60
2022/10/06 02:09:09;;;;;;;10.40;2.33;;;12.00;99.90;;;;;;5115047;28;20047;-60
2022/10/06 02:11:35;;;;;;;11.27;2.10;;;11.90;99.90;;;;;;5114486;28;20043;-60
2022/10/06 02:14:04;;;;;;;10.00;1.70;;;11.80;99.90;;;;;;5114380;28;20096;-61
2022/10/06 02:16:30;;;;;;;8.18;2.17;;;11.90;99.90;;;;;;5095163;28;20104;-61
2022/10/06 02:18:57;;;;;;;9.75;2.58;;;11.90;99.90;;;;;;5096126;28;20104;-60
2022/10/06 02:21:24;;;;;;;9.75;2.17;;;11.80;99.90;;;;;;5096895;28;20088;-61
2022/10/06 02:23:51;;;;;;;10.88;2.10;;;11.80;99.90;;;;;;5114869;28;20058;-61
2022/10/06 02:26:18;;;;;;;12.55;2.50;;;11.90;99.90;;;;;;5114328;28;20441;-61
2022/10/06 02:28:46;;;;;;;11.65;2.53;;;11.80;99.90;;;;;;5114579;28;20063;-60
2022/10/06 02:31:15;;;;;;;10.23;2.40;;;11.80;99.90;;;;;;5114365;28;20739;-60
2022/10/06 02:33:43;;;;;;;11.05;2.63;;;11.80;99.90;;;;;;5114519;28;20039;-60
2022/10/06 02:36:12;;;;;;;11.18;2.38;;;11.80;99.90;;;;;;5115007;28;20044;-60
2022/10/06 02:38:40;;;;;;;7.47;2.10;;;11.80;99.90;;;;;;5096992;28;20055;-60
2022/10/06 02:41:08;;;;;;;9.80;2.08;;;11.80;99.90;;;;;;5113698;28;20050;-61
2022/10/06 02:43:35;;;;;;;12.65;2.40;;;11.90;99.90;;;;;;5114281;28;20043;-61
2022/10/06 02:46:04;;;;;;;6.00;1.98;;;11.80;99.90;;;;;;5114565;28;20379;-61
2022/10/06 02:48:33;;;;;;;10.43;2.67;;;11.80;99.90;;;;;;5114235;28;20516;-61
2022/10/06 02:51:03;;;;;;;8.35;2.58;;;11.90;99.90;;;;;;5114117;28;20063;-61
2022/10/06 02:53:30;;;;;;;13.07;2.67;;;11.90;99.90;;;;;;5113770;28;20556;-61
2022/10/06 02:56:02;;;;;;;15.18;2.70;;;11.90;99.90;;;;;;5075964;28;20683;-62
2022/10/06 02:58:30;;;;;;;13.35;2.13;;;12.00;99.90;;;;;;5093543;28;20457;-61
2022/10/06 03:01:01;;;;;;;9.45;1.98;;;12.10;99.90;;;;;;5093297;28;20044;-61
2022/10/06 03:03:28;;;;;;;10.30;2.00;;;12.10;99.90;;;;;;5094309;28;20040;-60
2022/10/06 03:06:00;;;;;;;6.38;2.33;;;12.00;99.90;;;;;;5075607;28;20169;-60
2022/10/06 03:08:27;;;;;;;15.75;2.92;;;12.00;99.90;;;;;;5082371;28;20104;-60
2022/10/06 03:10:59;;;;;;;9.38;1.95;;;11.90;99.90;;;;;;5114106;28;20047;-60
2022/10/06 03:13:27;;;;;;;11.25;2.28;;;11.90;99.90;;;;;;5095598;28;20058;-61
2022/10/06 03:15:54;;;;;;;9.57;2.35;;;11.90;99.90;;;;;;5095314;28;20150;-60
2022/10/06 03:18:21;;;;;;;11.77;2.08;;;11.80;99.90;;;;;;5095618;28;20059;-60
2022/10/06 03:20:48;;;;;;;9.45;2.22;;;11.80;99.90;;;;;;5113620;28;20043;-60
2022/10/06 03:23:16;;;;;;;10.90;2.25;;;11.80;99.90;;;;;;5094792;28;20047;-61
2022/10/06 03:25:43;;;;;;;9.82;2.15;;;11.70;99.90;;;;;;5095500;28;20391;-61
2022/10/06 03:28:10;;;;;;;11.00;1.85;;;11.60;99.90;;;;;;5113562;28;20506;-60
2022/10/06 03:30:37;;;;;;;10.43;2.35;;;11.60;99.90;;;;;;5112817;28;20058;-61
2022/10/06 03:33:04;;;;;;;9.23;1.80;;;11.50;99.90;;;;;;5113334;28;20067;-60
2022/10/06 03:35:31;;;;;;;11.27;2.28;;;11.50;99.90;;;;;;5113256;28;20059;-61
2022/10/06 03:37:59;;;;;;;8.82;2.75;;;11.40;99.90;;;;;;5095092;28;20048;-61
2022/10/06 03:40:28;;;;;;;8.73;2.10;;;11.40;99.90;;;;;;5113233;28;20054;-61
2022/10/06 03:42:54;;;;;;;11.68;2.45;;;11.40;99.90;;;;;;5113007;28;20051;-61
2022/10/06 03:45:21;;;;;;;10.45;2.53;;;11.40;99.90;;;;;;5113497;28;20098;-60
2022/10/06 03:47:48;;;;;;;12.48;2.50;;;11.30;99.90;;;;;;5095340;28;20457;-60
2022/10/06 03:50:16;;;;;;;11.32;2.72;;;11.30;99.90;;;;;;5082827;28;20178;-60
2022/10/06 03:52:43;;;;;;;6.53;1.80;;;11.40;99.90;;;;;;5074656;28;20486;-60
2022/10/06 03:55:10;;;;;;;7.88;2.05;;;11.40;99.90;;;;;;5103463;28;20040;-60
2022/10/06 03:57:38;;;;;;;11.95;2.78;;;11.60;99.90;;;;;;5105445;28;20098;-61
2022/10/06 04:00:05;;;;;;;6.82;1.92;;;11.60;99.90;;;;;;5086255;28;20120;-61
2022/10/06 04:02:32;;;;;;;9.13;2.88;;;11.90;99.90;;;;;;5091045;28;20062;-61
2022/10/06 04:04:59;;;;;;;9.98;2.20;;;11.90;99.90;;;;;;5106208;28;20047;-61
2022/10/06 04:07:26;;;;;;;7.82;2.25;;;11.90;99.90;;;;;;5104775;28;20112;-61
2022/10/06 04:09:53;;;;;;;11.98;2.38;;;11.90;99.90;;;;;;5105280;28;20052;-61
2022/10/06 04:12:20;;;;;;;19.27;3.60;;;12.00;99.90;;;;;;5111282;28;20054;-60
2022/10/06 04:14:48;;;;;;;8.07;2.60;;;12.00;99.90;;;;;;5091328;28;20048;-60
2022/10/06 04:17:15;;;;;;;12.90;2.47;;;11.90;99.90;;;;;;5092686;28;20056;-60
2022/10/06 04:19:42;;;;;;;8.93;2.20;;;11.90;99.90;;;;;;5112169;28;20043;-61
2022/10/06 04:22:09;;;;;;;9.60;2.88;;;11.70;99.90;;;;;;5108629;28;20105;-60
2022/10/06 04:24:35;;;;;;;7.40;2.20;;;11.60;99.90;;;;;;5107929;28;20052;-61
2022/10/06 04:29:44;;;;;;;;;;;11.60;99.90;;;;;;5108129;28;20075;-62
2022/10/06 04:32:13;;;;;;;9.13;2.10;;;11.70;99.90;;;;;;5107976;28;19973;-61
2022/10/06 04:34:40;;;;;;;8.18;2.20;;;11.60;99.90;;;;;;5107443;28;20051;-60
2022/10/06 04:37:07;;;;;;;8.52;1.95;;;11.50;99.90;;;;;;5088283;28;20044;-61
2022/10/06 04:39:36;;;;;;;14.13;2.72;;;11.40;99.90;;;;;;5082017;28;20055;-60
2022/10/06 04:42:03;;;;;;;10.82;2.72;;;11.20;99.90;;;;;;5111273;27;20122;-61
2022/10/06 04:44:30;;;;;;;10.25;2.60;;;11.10;99.90;;;;;;5094233;28;20515;-60
2022/10/06 04:46:57;;;;;;;7.38;2.63;;;11.10;99.90;;;;;;5102879;28;20052;-60
2022/10/06 04:49:25;;;;;;;8.73;2.25;;;11.00;99.90;;;;;;5098241;28;20044;-61
2022/10/06 04:51:52;;;;;;;10.88;2.28;;;10.90;99.90;;;;;;5105165;28;20495;-60
2022/10/06 04:54:19;;;;;;;9.27;2.90;;;10.90;99.90;;;;;;5094879;28;20040;-60
2022/10/06 04:56:46;;;;;;;8.27;2.45;;;10.80;99.90;;;;;;5077285;28;20067;-61
2022/10/06 04:59:13;;;;;;;11.07;2.78;;;10.80;99.90;;;;;;5087118;28;20501;-60
2022/10/06 05:01:39;;;;;;;15.20;3.00;;;10.70;99.90;;;;;;5111832;28;20043;-60
2022/10/06 05:04:07;;;;;;;10.73;2.53;;;10.70;99.90;;;;;;5107079;28;20052;-60
2022/10/06 05:06:36;;;;;;;10.43;2.33;;;10.70;99.90;;;;;;5093785;27;20491;-60
2022/10/06 05:09:05;;;;;;;9.93;2.00;;;10.70;99.90;;;;;;5109702;28;20051;-61
2022/10/06 05:11:32;;;;;;;16.67;3.30;;;10.70;99.90;;;;;;5108077;28;20040;-60
2022/10/06 05:14:00;;;;;;;11.70;2.67;;;10.70;99.90;;;;;;5120998;27;20142;-61
2022/10/06 05:16:28;;;;;;;7.07;2.25;;;10.60;99.90;;;;;;5111253;28;20048;-60
2022/10/06 05:18:56;;;;;;;7.72;2.25;;;10.60;99.90;;;;;;5094112;28;20440;-60
2022/10/06 05:21:24;;;;;;;8.55;1.92;;;10.60;99.90;;;;;;5088805;28;20051;-60
2022/10/06 05:23:52;;;;;;;11.55;2.20;;;10.50;99.90;;;;;;5090495;27;20490;-60
2022/10/06 05:26:21;;;;;;;5.82;2.00;;;10.50;99.90;;;;;;5108543;28;20051;-60
2022/10/06 05:28:48;;;;;;;9.80;2.33;;;10.50;99.90;;;;;;5105584;28;20055;-60
2022/10/06 05:31:17;;;;;;;11.25;2.42;;;10.50;99.90;;;;;;5106557;28;20082;-61
2022/10/06 05:33:44;;;;;;;13.07;2.55;;;10.50;99.90;;;;;;5103470;28;20105;-60
2022/10/06 05:36:14;;;;;;;12.63;3.25;;;10.60;99.90;;;;;;5092878;28;20486;-60
2022/10/06 05:38:42;;;;;;;4.47;1.83;;;10.60;99.90;;;;;;5107957;28;20048;-59
2022/10/06 05:41:13;;;;;;;9.02;2.20;;;10.60;99.90;;;;;;5113583;28;20043;-60
2022/10/06 05:43:41;;;;;;;9.93;2.13;;;10.50;99.90;;;;;;5096788;28;20047;-61
2022/10/06 05:46:16;;;;;;;10.55;2.42;;;10.40;99.90;;;;;;5115448;28;20175;-60
2022/10/06 05:48:44;;;;;;;13.55;2.90;;;10.40;99.90;;;;;;5116033;28;20126;-60
2022/10/06 05:51:11;;;;;;;10.80;2.97;;;10.40;99.90;;;;;;5114630;28;20420;-60
2022/10/06 05:53:38;;;;;;;12.18;2.80;;;10.50;99.90;;;;;;5115557;28;20048;-61
2022/10/06 05:56:07;;;;;;;9.20;2.53;;;10.50;99.90;;;;;;5115711;28;20052;-61
2022/10/06 05:58:37;;;;;;;11.98;2.60;;;10.50;99.90;;;;;;5115082;28;20051;-60
2022/10/06 06:01:09;;;;;;;8.77;3.03;;;10.50;99.90;;;;;;5115036;28;20043;-61
2022/10/06 06:03:37;;;;;;;8.63;2.42;;;10.50;99.90;;;;;;5115185;28;20460;-61
2022/10/06 06:06:14;;;;;;;14.05;2.63;;;10.50;99.90;;;;;;5115148;28;20083;-60
2022/10/06 06:08:42;;;;;;;9.73;2.15;;;10.60;99.90;;;;;;5097126;28;20055;-65
2022/10/06 06:11:11;;;;;;;7.88;2.13;;;10.60;99.90;;;;;;5114509;28;20130;-61
2022/10/06 06:13:40;;;;;;;9.38;2.70;;;10.60;99.90;;;;;;5115210;28;20051;-62
2022/10/06 06:16:11;;;;;;;11.80;2.63;;;10.60;99.90;;;;;;5115195;28;20061;-62
2022/10/06 06:18:39;;;;;;;10.93;2.40;;;10.60;99.90;;;;;;5114332;28;20043;-60
2022/10/06 06:21:07;;;;;;;11.27;2.55;;;10.60;99.90;;;;;;5114329;28;20087;-61
2022/10/06 06:23:37;;;;;;;11.82;3.38;;;10.70;99.90;;;;;;5115394;28;20044;-60
2022/10/06 06:26:06;;;;;;;15.05;2.50;;;10.80;99.90;;;;;;5114382;28;20047;-61
2022/10/06 06:28:35;;;;;;;10.77;2.70;;;10.80;99.90;;;;;;5092980;28;20117;-60
2022/10/06 06:31:07;;;;;;;17.73;3.00;;;11.00;99.90;;;;;;5094166;28;20052;-61
2022/10/06 06:33:36;;;;;;;10.93;2.22;;;11.10;99.90;;;;;;5093209;28;20070;-60
2022/10/06 06:36:04;;;;;;;8.40;2.25;;;11.10;99.90;;;;;;5093895;28;20044;-61
2022/10/06 06:38:32;;;;;;;9.45;2.45;;;11.20;99.90;;;;;;5093382;28;20094;-61
2022/10/06 06:40:59;;;;;;;6.72;2.60;;;11.30;99.90;;;;;;5093282;28;20079;-61
2022/10/06 06:43:28;;;;;;;7.10;2.20;;;11.40;99.90;;;;;;5093668;28;20147;-60
2022/10/06 06:46:04;;;;;;;13.05;2.85;;;11.50;99.90;;;;;;5094042;28;20130;-60
2022/10/06 06:48:31;;;;;;;12.63;2.67;;;11.60;99.90;;;;;;5094317;28;20047;-60
2022/10/06 06:50:59;;;;;;;7.75;2.80;;;11.80;99.90;;;;;;5075536;28;20105;-59
2022/10/06 06:53:26;;;;;;;11.30;2.50;;;11.90;99.90;;;;;;5075257;28;20137;-60
2022/10/06 06:55:54;;;;;;;9.32;2.45;;;12.00;99.90;;;;;;5093813;28;20139;-59
2022/10/06 06:58:22;;;;;;;10.20;2.80;;;12.10;99.90;;;;;;5094059;28;20428;-60
2022/10/06 07:00:49;;;;;;;13.82;2.97;;;12.30;99.90;;;;;;5093237;28;20044;-60
2022/10/06 07:03:19;;;;;;;7.28;2.50;;;12.60;99.90;;;;;;5093461;28;20197;-61
2022/10/06 07:05:47;;;;;;;20.30;2.97;;;13.00;99.90;;;;;;5076352;28;20051;-61
2022/10/06 07:08:15;;;;;;;9.57;2.13;;;13.90;99.90;;;;;;5093421;28;20450;-61
2022/10/06 07:10:44;;;;;;;10.32;2.38;;;14.80;99.90;;;;;;5093285;28;20059;-61
2022/10/06 07:13:15;;;;;;;8.75;2.15;;;15.40;99.90;;;;;;5093951;28;20127;-60
2022/10/06 07:26:44;;;;;;;11.18;2.50;;;15.00;99.90;;;;;;5089129;28;20081;-61
2022/10/06 07:29:11;;;;;;;8.65;2.20;;;15.90;99.90;;;;;;5101445;27;20051;-60
2022/10/06 07:31:39;;;;;;;11.63;2.58;;;16.80;99.90;;;;;;5099689;28;20494;-59
2022/10/06 07:34:08;;;;;;;9.90;2.75;;;17.90;99.90;;;;;;5110347;28;20192;-60
2022/10/06 07:36:36;;;;;;;8.23;2.05;;;18.70;99.90;;;;;;5113023;28;20100;-61
2022/10/06 07:39:03;;;;;;;9.93;1.92;;;19.40;99.90;;;;;;5113113;28;20066;-59
2022/10/06 07:41:31;;;;;;;10.23;2.42;;;19.90;99.90;;;;;;5113441;28;20116;-62
2022/10/06 07:43:59;;;;;;;8.00;1.88;;;20.20;99.90;;;;;;5094548;28;20065;-60
2022/10/06 07:46:26;;;;;;;3.70;1.50;;;20.60;99.90;;;;;;5112366;28;20059;-60
2022/10/06 07:48:54;;;;;;;8.60;1.90;;;20.60;99.90;;;;;;5101519;28;20486;-61
2022/10/06 07:51:23;;;;;;;9.57;2.30;;;20.90;99.70;;;;;;5112862;28;20048;-61
2022/10/06 07:53:50;;;;;;;14.15;2.45;;;21.40;99.90;;;;;;5110242;28;20048;-61
2022/10/06 07:56:20;;;;;;;10.32;1.90;;;21.30;97.00;;;;;;5112576;28;20391;-61
2022/10/06 07:58:48;;;;;;;8.90;2.85;;;21.70;98.70;;;;;;5112184;28;20058;-60
2022/10/06 08:01:17;;;;;;;9.05;2.42;;;22.10;96.50;;;;;;5101803;28;20402;-62
2022/10/06 08:03:49;;;;;;;6.75;2.08;;;22.00;94.80;;;;;;5105124;28;20040;-61
2022/10/06 08:06:18;;;;;;;9.45;2.28;;;22.20;95.50;;;;;;5091151;28;20130;-62
2022/10/06 08:08:48;;;;;;;8.63;1.77;;;22.30;95.40;;;;;;5099174;28;20044;-61
2022/10/06 08:11:16;;;;;;;9.15;1.85;;;22.20;94.90;;;;;;5107905;28;20081;-62
2022/10/06 08:13:46;;;;;;;9.25;2.83;;;22.10;94.50;;;;;;5120801;28;20058;-62
2022/10/06 08:16:16;;;;;;;9.00;1.75;;;22.70;94.60;;;;;;5108264;28;20044;-61
2022/10/06 08:18:49;;;;;;;6.95;2.28;;;22.60;93.60;;;;;;5092406;28;20438;-60
2022/10/06 08:21:19;;;;;;;8.50;2.10;;;22.90;92.60;;;;;;5111227;28;20047;-61
2022/10/06 08:23:49;;;;;;;11.02;2.65;;;23.30;92.60;;;;;;5091959;28;20036;-60
2022/10/06 08:26:17;;;;;;;;;;;23.60;92.30;;;;;;5075350;28;20056;-62
2022/10/06 08:28:47;;;;;;;10.80;2.00;;;23.50;88.80;;;;;;5069145;28;19924;-61
2022/10/06 08:31:16;;;;;;;11.70;2.20;;;23.90;91.40;;;;;;5071844;28;20060;-62
2022/10/06 08:33:45;;;;;;;7.68;2.17;;;23.80;89.10;;;;;;5080615;28;20126;-62
2022/10/06 08:36:16;;;;;;;6.03;2.42;;;24.00;90.70;;;;;;5092088;28;20514;-61
2022/10/06 08:38:49;;;;;;;9.15;2.10;;;24.40;90.10;;;;;;5092066;28;20079;-61
2022/10/06 08:41:24;;;;;;;6.72;2.28;;;23.90;89.10;;;;;;5092072;28;20051;-61
2022/10/06 08:44:03;;;;;;;8.80;2.42;;;24.30;87.30;;;;;;5092368;28;20044;-60
2022/10/06 08:46:36;;;;;;;8.65;1.98;;;24.60;85.10;;;;;;5092195;28;20453;-60
2022/10/06 08:49:04;;;;;;;8.90;1.98;;;24.60;86.90;;;;;;5092355;28;20043;-61
2022/10/06 08:51:55;;;;;;;7.63;1.88;;;25.00;86.10;;;;;;5092257;28;20127;-61
2022/10/06 08:54:29;;;;;;;9.18;2.08;;;24.50;83.60;;;;;;5091499;28;20052;-61
2022/10/06 08:57:04;;;;;;;6.57;2.05;;;24.30;83.40;;;;;;5085604;28;20493;-61
2022/10/06 08:59:34;;;;;;;8.55;2.53;;;24.70;82.30;;;;;;5079699;28;20040;-61
2022/10/06 09:02:06;;;;;;;7.80;2.50;;;24.20;81.90;;;;;;5086143;28;20047;-62
2022/10/06 09:04:34;;;;;;;10.25;2.45;;;24.60;82.40;;;;;;5091522;28;20468;-61
2022/10/06 09:07:04;;;;;;;5.95;2.05;;;24.80;83.70;;;;;;5069251;28;20048;-61
2022/10/06 09:09:55;;;;;;;5.18;1.48;;;24.70;81.10;;;;;;5085617;28;20127;-61
2022/10/06 09:12:31;;;;;;;9.98;2.15;;;25.20;81.20;;;;;;5105883;28;20059;-60
2022/10/06 09:15:09;;;;;;;7.20;2.17;;;25.20;81.00;;;;;;5087832;28;20052;-60
2022/10/06 09:17:42;;;;;;;9.65;1.83;;;25.40;81.20;;;;;;5086985;28;20044;-61
2022/10/06 09:20:19;;;;;;;6.35;1.95;;;25.00;80.20;;;;;;5081832;28;20051;-62
2022/10/06 09:22:49;;;;;;;12.80;1.98;;;24.50;81.00;;;;;;5092325;28;20101;-62
2022/10/06 09:25:19;;;;;;;9.98;2.13;;;24.50;82.00;;;;;;5087556;28;20040;-62
2022/10/06 09:27:53;;;;;;;4.93;1.70;;;25.40;81.90;;;;;;5087366;28;20132;-61
2022/10/06 09:30:21;;;;;;;5.93;1.95;;;25.70;78.80;;;;;;5109760;28;20134;-61
2022/10/06 09:32:52;;;;;;;10.63;2.60;;;25.40;79.60;;;;;;5113144;28;20184;-61
2022/10/06 09:35:22;;;;;;;9.40;2.47;;;24.20;79.20;;;;;;5114126;28;20051;-60
2022/10/06 09:37:55;;;;;;;6.03;1.70;;;23.50;80.90;;;;;;5115736;28;20096;-61
2022/10/06 09:40:37;;;;;;;7.72;2.08;;;22.80;82.70;;;;;;5115525;27;20128;-60
2022/10/06 09:43:19;;;;;;;6.20;1.80;;;23.50;80.50;;;;;;5105176;28;20118;-62
2022/10/06 09:45:46;;;;;;;7.72;1.73;;;24.20;79.50;;;;;;5115234;28;20118;-62
2022/10/06 09:48:21;;;;;;;7.68;2.28;;;23.60;80.00;;;;;;5097589;28;20070;-61
2022/10/06 09:51:07;;;;;;;7.13;1.90;;;23.70;80.00;;;;;;5115515;28;20062;-62
2022/10/06 09:53:38;;;;;;;8.80;1.98;;;23.20;81.00;;;;;;5115804;28;20052;-61
2022/10/06 09:56:14;;;;;;;6.15;1.85;;;23.10;80.00;;;;;;5114767;28;20403;-61
2022/10/06 09:58:55;;;;;;;8.23;1.63;;;22.40;80.40;;;;;;5115941;28;20048;-62
2022/10/06 10:01:26;;;;;;;6.20;2.08;;;22.10;82.00;;;;;;5115282;28;20047;-62
2022/10/06 10:03:59;;;;;;;9.43;2.00;;;20.80;84.70;;;;;;5114678;28;20044;-61
2022/10/06 10:06:28;;;;;;;8.57;2.00;;;20.60;86.80;;;;;;5114998;28;20092;-62
2022/10/06 10:09:24;;;;;;;8.35;2.00;;;21.00;86.70;;;;;;5114151;28;20547;-62
2022/10/06 10:12:26;;;;;;;8.18;1.75;;;21.70;84.80;;;;;;5115394;28;20071;-61
2022/10/06 10:15:02;;;;;;;6.72;1.42;;;21.60;83.50;;;;;;5094550;28;20052;-62
2022/10/06 10:17:42;;;;;;;7.68;2.00;;;21.10;83.90;;;;;;5094441;28;20047;-62
2022/10/06 10:20:32;;;;;;;8.00;1.77;;;20.70;85.90;;;;;;5094474;28;20048;-61
2022/10/06 10:23:01;;;;;;;;;;;21.10;85.40;;;;;;5095244;28;20093;-61
2022/10/06 10:26:18;;;;;;;4.35;1.55;;;21.70;84.70;;;;;;5094095;28;19924;-62
2022/10/06 10:29:17;;;;;;;5.93;1.52;;;23.00;82.00;;;;;;5086016;28;20051;-63
2022/10/06 10:32:01;;;;;;;7.38;1.65;;;23.80;80.60;;;;;;5094056;28;20517;-62
2022/10/06 10:34:54;;;;;;;6.82;1.80;;;23.80;79.20;;;;;;5093995;28;20044;-62
2022/10/06 10:37:28;;;;;;;5.72;1.60;;;23.80;79.80;;;;;;5094432;28;20123;-62
2022/10/06 10:40:02;;;;;;;7.53;1.70;;;24.50;77.80;;;;;;5094362;28;20109;-63
2022/10/06 10:42:33;;;;;;;6.13;1.73;;;24.70;76.80;;;;;;5093808;28;20048;-62
2022/10/06 10:45:03;;;;;;;8.65;1.85;;;25.20;75.40;;;;;;5093195;28;20056;-60
2022/10/06 10:47:35;;;;;;;6.68;1.42;;;24.80;74.80;;;;;;5072246;28;20090;-62
2022/10/06 10:50:11;;;;;;;6.63;1.80;;;25.10;75.10;;;;;;5093460;28;20495;-61
2022/10/06 10:52:43;;;;;;;6.57;1.67;;;25.60;72.60;;;;;;5092219;28;20044;-61
2022/10/06 10:55:20;;;;;;;6.82;1.80;;;25.60;74.30;;;;;;5051395;28;20493;-61
2022/10/06 10:57:50;;;;;;;5.32;1.52;;;25.40;72.50;;;;;;5054159;28;20564;-61
2022/10/06 11:00:21;;;;;;;5.45;1.60;;;25.10;72.70;;;;;;5071078;28;20044;-62
2022/10/06 11:02:53;;;;;;;7.90;1.40;;;25.40;72.60;;;;;;5071952;28;20056;-61
2022/10/06 11:05:36;;;;;;;7.57;1.90;;;25.40;70.70;;;;;;5080679;28;20147;-61
2022/10/06 11:08:11;;;;;;;5.10;1.60;;;25.20;70.30;;;;;;5074969;28;20084;-61
2022/10/06 11:10:45;;;;;;;6.47;1.63;;;25.60;71.40;;;;;;5079575;28;20043;-61
2022/10/06 11:13:20;;;;;;;5.78;1.40;;;26.00;71.20;;;;;;5054054;28;20060;-61
2022/10/06 11:15:58;;;;;;;6.25;1.52;;;26.20;70.70;;;;;;5072436;28;20195;-60
2022/10/06 11:18:40;;;;;;;7.20;1.50;;;25.60;71.30;;;;;;5071424;28;20598;-60
2022/10/06 11:21:13;;;;;;;4.07;1.30;;;25.40;72.00;;;;;;5070993;28;20048;-61
2022/10/06 11:23:52;;;;;;;5.47;1.45;;;25.50;70.80;;;;;;5073506;28;20056;-61
2022/10/06 11:26:52;;;;;;;4.47;1.13;;;25.70;68.80;;;;;;5071674;28;20131;-61
2022/10/06 11:29:33;;;;;;;6.78;1.55;;;25.20;68.30;;;;;;5081969;28;20078;-61
2022/10/06 11:32:10;;;;;;;5.30;1.33;;;25.70;68.60;;;;;;5089581;28;20055;-63
2022/10/06 11:34:40;;;;;;;8.20;2.03;;;25.50;69.10;;;;;;5092689;28;20048;-61
2022/10/06 11:37:20;;;;;;;4.97;1.33;;;25.80;69.10;;;;;;5108283;28;20063;-62
2022/10/06 11:39:57;;;;;;;9.93;1.77;;;26.10;69.40;;;;;;5093795;28;20051;-61
2022/10/06 11:42:32;;;;;;;4.85;1.30;;;26.30;67.20;;;;;;5092092;28;20075;-62
2022/10/06 11:45:03;;;;;;;8.10;1.83;;;26.40;65.70;;;;;;5090986;28;20055;-61
2022/10/06 11:47:35;;;;;;;4.72;1.20;;;25.80;66.10;;;;;;5091651;28;20066;-61
2022/10/06 11:50:33;;;;;;;6.50;1.33;;;26.30;66.70;;;;;;5090963;28;20052;-61
2022/10/06 11:53:00;;;;;;;3.28;0.95;;;26.30;66.00;;;;;;5091406;28;20056;-61
2022/10/06 11:55:28;;;;;;;5.97;1.73;;;26.30;66.00;;;;;;5081025;28;20043;-62
2022/10/06 11:58:15;;;;;;;4.60;1.33;;;26.70;66.70;;;;;;5097451;28;20473;-62
2022/10/06 12:00:50;;;;;;;5.13;1.30;;;26.80;65.40;;;;;;5091781;28;20052;-60
2022/10/06 12:03:45;;;;;;;6.22;1.52;;;26.30;66.20;;;;;;5090978;28;20384;-62
2022/10/06 12:06:45;;;;;;;7.38;1.48;;;26.10;66.30;;;;;;5078736;28;20100;-61
2022/10/06 12:09:51;;;;;;;4.95;1.42;;;26.00;65.40;;;;;;5100583;28;20044;-61
2022/10/06 12:12:53;;;;;;;5.18;1.38;;;26.30;65.90;;;;;;5091743;28;20059;-62
2022/10/06 12:15:42;;;;;;;5.40;1.52;;;26.30;65.60;;;;;;5109627;28;20065;-61
2022/10/06 12:18:24;;;;;;;4.38;1.38;;;26.00;65.30;;;;;;5090538;28;20494;-61
2022/10/06 12:21:05;;;;;;;4.95;1.50;;;26.50;65.90;;;;;;5091275;28;20044;-61
2022/10/06 12:23:43;;;;;;;4.30;1.30;;;27.10;67.00;;;;;;5093341;28;20507;-61
2022/10/06 12:26:23;;;;;;;5.82;1.30;;;26.60;66.60;;;;;;5073622;28;20130;-62
2022/10/06 12:28:56;;;;;;;5.82;1.30;;;26.80;65.20;;;;;;5090755;28;20496;-62
2022/10/06 12:31:41;;;;;;;6.95;1.17;;;26.50;65.60;;;;;;5091068;28;20449;-61
2022/10/06 12:34:41;;;;;;;6.05;1.30;;;25.60;65.90;;;;;;5094970;28;20498;-62
2022/10/06 12:37:35;;;;;;;5.57;1.30;;;24.90;66.50;;;;;;5096236;28;20161;-61
2022/10/06 12:40:39;;;;;;;6.60;1.30;;;25.10;66.10;;;;;;5096315;28;20044;-61
2022/10/06 12:43:57;;;;;;;7.25;1.67;;;25.30;67.20;;;;;;5078699;28;20052;-62
2022/10/06 12:46:45;;;;;;;6.63;1.58;;;25.60;67.60;;;;;;5095704;28;20040;-61
2022/10/06 12:49:45;;;;;;;5.40;1.58;;;25.80;67.20;;;;;;5078511;28;20541;-61
2022/10/06 12:52:28;;;;;;;7.22;1.17;;;25.40;66.20;;;;;;5095473;28;20087;-62
2022/10/06 12:55:06;;;;;;;5.60;1.33;;;25.30;67.60;;;;;;5116333;28;20134;-61
2022/10/06 12:57:45;;;;;;;5.47;1.40;;;25.70;67.80;;;;;;5116383;28;20078;-61
2022/10/06 13:00:23;;;;;;;3.45;1.23;;;25.80;66.20;;;;;;5098072;28;20112;-61
2022/10/06 13:02:56;;;;;;;3.30;1.30;;;26.00;66.50;;;;;;5116548;28;20052;-62
2022/10/06 13:05:24;;;;;;;4.03;1.15;;;25.30;67.30;;;;;;5115940;28;20051;-61
2022/10/06 13:07:58;;;;;;;8.82;1.40;;;25.40;67.40;;;;;;5116134;28;20134;-62
2022/10/06 13:10:28;;;;;;;5.25;1.45;;;25.00;66.10;;;;;;5098431;28;20077;-62
2022/10/06 13:12:56;;;;;;;6.68;1.40;;;25.10;67.00;;;;;;5115996;28;20130;-61
2022/10/06 13:15:26;;;;;;;6.70;1.80;;;24.90;67.20;;;;;;5098474;28;20109;-61
2022/10/06 13:17:57;;;;;;;8.43;1.75;;;25.30;67.20;;;;;;5116208;28;20051;-61
2022/10/06 13:20:35;;;;;;;3.95;1.33;;;25.30;67.10;;;;;;5095835;28;20054;-61